Time;durP1;ratioP1;P1;durP2;ratioP2;P2;SDS_P1;SDS_P2;PMS_P1;PMS_P2;Temp;Humidity;BMP_temperature;BMP_pressure;BME280_temperature;BME280_humidity;BME280_pressure;Samples;Min_cycle;Max_cycle;Signal;HPM_P1;HPM_P2
2021/08/28 00:01:44;;;;;;;12.57;3.88;;;;;;;15.34;80.15;102118.78;5040352;28;20316;-74
2021/08/28 00:04:10;;;;;;;17.52;4.63;;;;;;;15.09;80.90;102122.38;5039018;28;20128;-74
2021/08/28 00:06:35;;;;;;;8.10;3.00;;;;;;;15.78;74.08;102123.19;5022081;28;20032;-74
2021/08/28 00:09:00;;;;;;;14.98;4.53;;;;;;;15.13;81.04;102125.75;5040252;28;20317;-74
2021/08/28 00:11:26;;;;;;;17.13;4.03;;;;;;;14.66;83.44;102117.91;5038470;28;20091;-74
2021/08/28 00:13:51;;;;;;;23.73;4.45;;;;;;;14.23;84.97;102125.56;5040256;28;20353;-74
2021/08/28 00:16:17;;;;;;;17.77;5.05;;;;;;;14.06;86.06;102122.66;5039598;28;20032;-74
2021/08/28 00:18:42;;;;;;;23.30;4.93;;;;;;;13.90;86.85;102117.94;5040179;28;20348;-74
2021/08/28 00:21:07;;;;;;;18.75;4.93;;;;;;;14.02;85.84;102117.53;5040221;28;20313;-73
2021/08/28 00:23:33;;;;;;;18.90;5.50;;;;;;;14.00;85.74;102110.56;5039552;28;20290;-74
2021/08/28 00:25:58;;;;;;;17.73;5.28;;;;;;;13.83;86.71;102119.06;5040096;28;20033;-74
2021/08/28 00:28:24;;;;;;;19.73;5.53;;;;;;;13.69;87.08;102116.88;5039625;28;20048;-74
2021/08/28 00:30:49;;;;;;;22.55;5.68;;;;;;;13.60;87.24;102111.91;5040401;28;20351;-74
2021/08/28 00:33:15;;;;;;;14.35;5.47;;;;;;;13.52;87.47;102117.44;5042516;28;20030;-74
2021/08/28 00:35:41;;;;;;;16.80;5.50;;;;;;;13.62;87.72;102105.72;5042700;28;20200;-74
2021/08/28 00:38:06;;;;;;;15.30;5.65;;;;;;;13.56;87.30;102111.16;5026097;28;20260;-74
2021/08/28 00:40:33;;;;;;;22.60;6.20;;;;;;;13.52;87.24;102114.81;5041830;28;20302;-74
2021/08/28 00:42:58;;;;;;;19.63;5.93;;;;;;;13.41;87.91;102106.41;5043699;28;20254;-74
2021/08/28 00:45:25;;;;;;;21.30;6.22;;;;;;;13.27;88.21;102103.34;5042760;28;20049;-74
2021/08/28 00:48:00;;;;;;;19.80;5.80;;;;;;;13.42;88.26;102110.75;5043554;28;20037;-74
2021/08/28 00:50:26;;;;;;;21.40;5.93;;;;;;;13.51;87.96;102112.22;5041734;28;20041;-74
2021/08/28 00:52:52;;;;;;;24.05;6.70;;;;;;;13.47;87.56;102111.47;5042387;28;20052;-74
2021/08/28 00:55:17;;;;;;;15.02;6.07;;;;;;;13.47;87.49;102116.72;5025354;28;20041;-73
2021/08/28 00:57:43;;;;;;;16.92;6.20;;;;;;;13.56;88.01;102116.44;5043503;28;20079;-73
2021/08/28 01:00:09;;;;;;;24.48;7.18;;;;;;;13.62;87.73;102108.34;5043356;28;20033;-73
2021/08/28 01:02:36;;;;;;;19.27;6.70;;;;;;;13.69;87.76;102110.75;5041634;28;20037;-74
2021/08/28 01:05:16;;;;;;;21.23;7.00;;;;;;;13.65;88.29;102106.53;5025957;28;20040;-74
2021/08/28 01:08:04;;;;;;;20.00;6.72;;;;;;;13.76;87.34;102109.66;5042212;28;20275;-74
2021/08/28 01:10:35;;;;;;;25.15;7.25;;;;;;;13.74;88.05;102107.06;5026941;28;20308;-74
2021/08/28 01:13:02;;;;;;;20.55;6.82;;;;;;;13.75;87.75;102113.19;5009572;28;20049;-74
2021/08/28 01:15:28;;;;;;;24.40;7.70;;;;;;;13.82;87.98;102112.94;5041461;28;20252;-74
2021/08/28 01:17:53;;;;;;;24.85;6.88;;;;;;;14.04;86.83;102116.59;5025344;28;20083;-74
2021/08/28 01:20:20;;;;;;;18.25;6.07;;;;;;;14.31;86.03;102115.59;5041345;28;20030;-74
2021/08/28 01:22:45;;;;;;;12.88;5.10;;;;;;;14.71;81.12;102114.16;5042977;28;20052;-74
2021/08/28 01:25:11;;;;;;;14.93;4.88;;;;;;;15.22;79.48;102106.94;5025173;28;20270;-74
2021/08/28 01:27:58;;;;;;;13.13;3.22;;;;;;;16.00;75.51;102107.28;5024722;28;20037;-74
2021/08/28 01:30:23;;;;;;;7.72;3.30;;;;;;;16.47;72.85;102110.44;5040877;28;20033;-74
2021/08/28 01:32:49;;;;;;;22.10;5.35;;;;;;;15.48;80.56;102105.88;5042661;28;20332;-74
2021/08/28 01:35:14;;;;;;;17.25;4.35;;;;;;;15.70;77.73;102112.91;5041034;28;20308;-74
2021/08/28 01:37:40;;;;;;;12.88;4.40;;;;;;;15.67;78.93;102111.25;5025034;28;20025;-74
2021/08/28 01:40:06;;;;;;;14.00;3.78;;;;;;;15.92;77.19;102111.09;5025118;28;20347;-74
2021/08/28 01:42:31;;;;;;;5.20;2.22;;;;;;;16.45;72.17;102103.53;5042127;28;20065;-74
2021/08/28 01:44:57;;;;;;;6.95;2.67;;;;;;;17.19;68.40;102103.59;5042334;28;20033;-74
2021/08/28 01:47:22;;;;;;;8.00;3.10;;;;;;;17.26;67.99;102105.03;5024305;28;20037;-74
2021/08/28 01:49:48;;;;;;;8.80;3.20;;;;;;;16.99;70.22;102104.56;5025011;28;20025;-74
2021/08/28 01:52:14;;;;;;;13.50;4.00;;;;;;;17.03;71.05;102107.94;5040811;28;20332;-74
2021/08/28 01:54:40;;;;;;;5.63;2.53;;;;;;;16.55;70.47;102115.38;5025076;28;20040;-74
2021/08/28 01:57:06;;;;;;;9.98;3.30;;;;;;;16.46;72.35;102108.75;5042286;28;20065;-74
2021/08/28 01:59:31;;;;;;;10.80;4.15;;;;;;;16.46;76.06;102116.69;5023958;28;20037;-74
2021/08/28 02:01:57;;;;;;;14.15;4.10;;;;;;;16.30;76.70;102115.66;5041384;28;20033;-74
2021/08/28 02:04:22;;;;;;;25.83;4.28;;;;;;;15.80;79.86;102108.13;5040800;28;20051;-74
2021/08/28 02:06:55;;;;;;;8.38;3.20;;;;;;;16.95;68.40;102107.41;5040850;28;20025;-74
2021/08/28 02:09:26;;;;;;;14.43;4.28;;;;;;;16.63;74.12;102105.31;5040347;28;20037;-74
2021/08/28 02:12:00;;;;;;;16.98;3.60;;;;;;;16.48;70.99;102101.59;5025200;28;20088;-74
2021/08/28 02:14:47;;;;;;;11.57;3.53;;;;;;;16.57;74.84;102110.03;5041435;28;20033;-74
2021/08/28 02:17:12;;;;;;;16.33;4.53;;;;;;;16.51;76.13;102113.81;5040466;28;20233;-74
2021/08/28 02:19:39;;;;;;;13.20;3.28;;;;;;;17.13;70.38;102116.28;5041788;28;20040;-74
2021/08/28 02:22:22;;;;;;;12.77;4.03;;;;;;;16.49;75.00;102121.81;5024305;28;20034;-74
2021/08/28 02:24:47;;;;;;;10.18;3.95;;;;;;;16.77;72.63;102120.56;5040807;28;20021;-74
2021/08/28 02:27:41;;;;;;;7.95;3.13;;;;;;;16.57;71.82;102124.13;5023514;28;20048;-74
2021/08/28 02:30:08;;;;;;;12.40;3.45;;;;;;;17.20;68.65;102123.00;5038996;28;20052;-74
2021/08/28 02:32:33;;;;;;;2.95;1.67;;;;;;;17.71;66.68;102108.09;5023680;28;20048;-74
2021/08/28 02:34:59;;;;;;;3.10;1.92;;;;;;;17.91;67.23;102122.16;5040550;28;20100;-74
2021/08/28 02:37:25;;;;;;;9.30;2.28;;;;;;;17.88;64.04;102119.66;5040176;28;20037;-74
2021/08/28 02:39:50;;;;;;;13.45;3.92;;;;;;;16.79;72.91;102123.13;5041482;28;20070;-74
2021/08/28 02:42:16;;;;;;;2.95;2.00;;;;;;;17.68;65.12;102113.53;5006820;28;20028;-74
2021/08/28 02:44:43;;;;;;;10.10;3.00;;;;;;;16.91;68.59;102116.44;5039972;28;20033;-74
2021/08/28 02:47:09;;;;;;;13.48;4.32;;;;;;;16.76;73.29;102115.34;5040196;28;20139;-74
2021/08/28 02:49:34;;;;;;;5.53;2.08;;;;;;;17.44;67.45;102108.56;5039787;28;20040;-74
2021/08/28 02:52:00;;;;;;;13.60;3.47;;;;;;;17.28;70.10;102104.94;5040405;28;20070;-74
2021/08/28 02:54:25;;;;;;;4.40;2.15;;;;;;;17.70;64.90;102109.06;5022668;28;20039;-73
2021/08/28 02:56:51;;;;;;;4.70;2.25;;;;;;;17.45;66.20;102104.13;5039890;28;20021;-74
2021/08/28 02:59:17;;;;;;;13.02;3.75;;;;;;;17.41;66.47;102105.22;5039870;28;20017;-74
2021/08/28 03:01:42;;;;;;;7.72;2.95;;;;;;;16.96;72.42;102106.50;5024054;28;20029;-74
2021/08/28 03:04:08;;;;;;;9.18;2.97;;;;;;;17.70;64.94;102105.53;5041152;28;20139;-74
2021/08/28 03:06:33;;;;;;;6.15;2.85;;;;;;;18.00;63.34;102100.47;5040390;28;20236;-74
2021/08/28 03:08:58;;;;;;;7.07;2.65;;;;;;;17.75;64.20;102099.06;5023567;28;20229;-74
2021/08/28 03:11:24;;;;;;;12.52;3.40;;;;;;;17.32;70.82;102097.69;5040411;28;20096;-74
2021/08/28 03:13:49;;;;;;;4.88;2.80;;;;;;;17.36;70.76;102102.78;5039857;28;20049;-74
2021/08/28 03:16:17;;;;;;;2.35;1.60;;;;;;;17.90;63.85;102085.97;5039305;28;20077;-74
2021/08/28 03:18:43;;;;;;;5.27;1.87;;;;;;;17.43;69.10;102093.59;5023668;28;20029;-74
2021/08/28 03:21:09;;;;;;;7.15;2.38;;;;;;;17.33;67.80;102089.69;5039777;28;20609;-74
2021/08/28 03:23:34;;;;;;;5.70;2.13;;;;;;;17.75;64.71;102090.25;5022758;28;20037;-74
2021/08/28 03:26:00;;;;;;;3.60;2.40;;;;;;;17.41;69.90;102086.69;5023277;28;20033;-74
2021/08/28 03:28:26;;;;;;;2.83;1.77;;;;;;;17.87;64.20;102091.47;5022605;28;20255;-74
2021/08/28 03:30:52;;;;;;;9.02;3.03;;;;;;;17.26;67.24;102091.78;5023440;28;20216;-74
2021/08/28 03:33:18;;;;;;;4.05;2.08;;;;;;;17.10;67.38;102089.94;5040530;28;20049;-74
2021/08/28 03:35:45;;;;;;;8.63;2.63;;;;;;;17.28;70.06;102096.97;5039557;28;20037;-74
2021/08/28 03:38:10;;;;;;;10.90;3.00;;;;;;;16.10;74.77;102095.38;5023268;28;20369;-74
2021/08/28 03:40:36;;;;;;;7.35;2.28;;;;;;;17.26;69.81;102098.84;5038995;28;20037;-74
2021/08/28 03:43:02;;;;;;;3.83;2.15;;;;;;;17.35;69.22;102095.75;5022984;28;20056;-74
2021/08/28 03:45:28;;;;;;;3.25;1.75;;;;;;;17.01;69.36;102099.22;5039689;28;20197;-74
2021/08/28 03:47:53;;;;;;;6.35;2.28;;;;;;;17.52;69.01;102104.66;5039500;28;20025;-74
2021/08/28 03:50:19;;;;;;;4.18;2.13;;;;;;;17.17;66.75;102094.00;5038816;28;20044;-74
2021/08/28 03:52:44;;;;;;;5.45;2.60;;;;;;;17.78;65.38;102098.06;5040556;28;20098;-74
2021/08/28 03:55:09;;;;;;;2.35;1.42;;;;;;;17.97;63.34;102101.50;5040489;28;20328;-73
2021/08/28 03:57:35;;;;;;;6.07;2.67;;;;;;;17.10;69.30;102103.19;5039810;28;20083;-74
2021/08/28 04:00:00;;;;;;;2.10;1.48;;;;;;;17.93;63.55;102101.72;5023026;28;20044;-74
2021/08/28 04:02:26;;;;;;;5.57;1.95;;;;;;;17.47;66.93;102099.59;5038741;28;20039;-74
2021/08/28 04:04:51;;;;;;;5.35;2.40;;;;;;;16.80;68.49;102099.25;5040747;28;20041;-74
2021/08/28 04:07:17;;;;;;;10.82;3.15;;;;;;;16.32;75.68;102103.22;5041070;28;20029;-74
2021/08/28 04:09:42;;;;;;;7.88;3.08;;;;;;;16.70;72.96;102096.19;5044399;28;20111;-74
2021/08/28 04:12:08;;;;;;;7.38;2.92;;;;;;;17.12;69.00;102099.53;5044350;28;20042;-74
2021/08/28 04:14:33;;;;;;;4.72;2.03;;;;;;;17.79;64.61;102099.75;5042552;28;20037;-74
2021/08/28 04:16:58;;;;;;;7.38;2.88;;;;;;;17.26;66.96;102104.16;5044568;28;20036;-74
2021/08/28 04:19:24;;;;;;;5.85;1.92;;;;;;;17.77;64.33;102097.22;5043562;28;20045;-74
2021/08/28 04:21:49;;;;;;;4.38;1.92;;;;;;;17.48;68.39;102103.09;5044249;28;20100;-74
2021/08/28 04:24:15;;;;;;;4.65;2.40;;;;;;;16.99;72.11;102101.91;5043404;28;20216;-74
2021/08/28 04:26:40;;;;;;;13.60;3.15;;;;;;;17.36;70.69;102102.78;5044320;28;20091;-74
2021/08/28 04:29:06;;;;;;;4.93;2.58;;;;;;;17.50;67.48;102099.47;5043993;28;20035;-74
2021/08/28 04:31:31;;;;;;;2.78;1.63;;;;;;;17.62;65.04;102096.16;5043534;28;20048;-74
2021/08/28 04:33:56;;;;;;;6.25;2.67;;;;;;;17.43;68.97;102092.75;5043822;28;20040;-74
2021/08/28 04:36:22;;;;;;;13.50;3.08;;;;;;;17.49;66.23;102096.88;5043362;28;20049;-74
2021/08/28 04:38:47;;;;;;;3.05;1.92;;;;;;;17.80;64.40;102093.53;5043734;28;20329;-74
2021/08/28 04:41:13;;;;;;;2.10;1.88;;;;;;;17.80;66.65;102101.47;5042406;28;20041;-74
2021/08/28 04:43:38;;;;;;;3.97;2.25;;;;;;;17.93;65.79;102105.22;5043844;28;20040;-74
2021/08/28 04:46:03;;;;;;;2.20;1.60;;;;;;;17.21;67.18;102104.38;5043837;28;20057;-74
2021/08/28 04:48:31;;;;;;;3.72;1.92;;;;;;;17.97;63.70;102100.63;5041989;28;20017;-74
2021/08/28 04:50:57;;;;;;;3.78;2.05;;;;;;;17.46;67.21;102104.06;5043418;28;20052;-74
2021/08/28 04:53:22;;;;;;;14.50;3.85;;;;;;;16.17;76.42;102117.97;5043034;28;20029;-74
2021/08/28 04:55:48;;;;;;;6.15;2.58;;;;;;;16.64;69.76;102107.03;5042238;28;20037;-73
2021/08/28 04:58:13;;;;;;;8.65;3.13;;;;;;;16.81;74.20;102116.00;5043095;28;20037;-73
2021/08/28 05:00:39;;;;;;;12.02;3.50;;;;;;;16.50;75.86;102122.69;5043580;28;20033;-73
2021/08/28 05:03:04;;;;;;;5.55;2.63;;;;;;;16.79;69.96;102109.88;5043446;28;20040;-73
2021/08/28 05:05:30;;;;;;;7.65;2.70;;;;;;;17.23;67.76;102118.41;5042746;28;20086;-73
2021/08/28 05:07:55;;;;;;;7.28;2.60;;;;;;;17.88;64.62;102119.66;5042488;28;20029;-73
2021/08/28 05:10:21;;;;;;;2.22;1.48;;;;;;;17.45;66.18;102117.34;5025193;28;20057;-73
2021/08/28 05:12:47;;;;;;;2.85;1.90;;;;;;;17.58;65.77;102123.75;5043280;28;20229;-73
2021/08/28 05:15:12;;;;;;;8.23;3.53;;;;;;;17.86;65.80;102124.19;5041724;28;20041;-73
2021/08/28 05:17:37;;;;;;;6.65;2.65;;;;;;;17.54;66.06;102124.00;5042562;28;20075;-73
2021/08/28 05:20:03;;;;;;;5.75;2.47;;;;;;;17.58;65.41;102126.41;5043119;28;20277;-73
2021/08/28 05:22:29;;;;;;;4.05;1.70;;;;;;;17.65;65.55;102127.81;5042512;28;20041;-73
2021/08/28 05:24:54;;;;;;;11.85;3.38;;;;;;;17.49;66.08;102126.00;5041941;28;20268;-73
2021/08/28 05:27:19;;;;;;;3.78;1.45;;;;;;;17.89;64.43;102126.69;5042227;28;20045;-73
2021/08/28 05:29:45;;;;;;;11.85;2.75;;;;;;;17.71;64.93;102131.09;5043253;28;20029;-73
2021/08/28 05:32:10;;;;;;;2.72;1.95;;;;;;;17.82;65.29;102131.41;5041737;28;20033;-73
2021/08/28 05:34:36;;;;;;;3.47;1.60;;;;;;;17.68;64.63;102142.69;5042972;28;20029;-74
2021/08/28 05:37:01;;;;;;;4.05;2.08;;;;;;;17.51;68.06;102138.22;5043255;28;20052;-74
2021/08/28 05:39:27;;;;;;;8.77;2.53;;;;;;;17.27;70.74;102143.78;5042201;28;20036;-74
2021/08/28 05:41:52;;;;;;;3.08;1.63;;;;;;;17.73;64.39;102135.38;5041600;28;20039;-74
2021/08/28 05:44:17;;;;;;;4.57;2.10;;;;;;;17.63;67.48;102142.06;5041089;28;20033;-74
2021/08/28 05:46:43;;;;;;;5.57;2.15;;;;;;;17.71;65.71;102139.88;5042586;28;20049;-74
2021/08/28 05:49:08;;;;;;;5.80;2.55;;;;;;;17.92;66.78;102140.63;5042681;28;20108;-74
2021/08/28 05:51:34;;;;;;;5.60;2.20;;;;;;;17.82;67.60;102142.00;5040777;28;20045;-74
2021/08/28 05:53:59;;;;;;;3.13;1.95;;;;;;;18.07;66.54;102144.28;5042529;28;20033;-73
2021/08/28 05:56:25;;;;;;;4.53;2.25;;;;;;;17.76;65.28;102140.53;5040624;28;20037;-73
2021/08/28 05:58:50;;;;;;;4.13;2.17;;;;;;;18.05;63.78;102142.66;5042380;28;20030;-73
2021/08/28 06:01:16;;;;;;;2.25;1.70;;;;;;;18.11;64.73;102148.50;5040919;28;20033;-73
2021/08/28 06:03:41;;;;;;;9.57;3.58;;;;;;;16.96;73.83;102146.19;5038214;28;20057;-74
2021/08/28 06:06:06;;;;;;;7.30;2.80;;;;;;;17.07;71.22;102149.19;5040840;28;20044;-74
2021/08/28 06:08:32;;;;;;;7.72;2.60;;;;;;;16.97;72.44;102148.78;5040040;28;20033;-73
2021/08/28 06:10:57;;;;;;;6.38;2.80;;;;;;;17.54;66.41;102147.84;5040329;28;20041;-73
2021/08/28 06:13:23;;;;;;;2.92;1.42;;;;;;;17.95;64.33;102139.63;5039644;28;20321;-73
2021/08/28 06:15:48;;;;;;;5.40;2.63;;;;;;;17.88;64.85;102154.97;5039910;28;20041;-73
2021/08/28 06:18:14;;;;;;;6.07;2.40;;;;;;;17.75;69.61;102161.78;5038413;28;20035;-73
2021/08/28 06:20:39;;;;;;;6.57;2.50;;;;;;;17.87;69.69;102160.38;5029391;28;20242;-73
2021/08/28 06:23:04;;;;;;;10.00;3.30;;;;;;;17.69;70.38;102157.66;5020343;28;20306;-73
2021/08/28 06:25:30;;;;;;;9.93;2.88;;;;;;;17.79;68.68;102163.34;5019671;28;20136;-73
2021/08/28 06:27:55;;;;;;;3.15;1.40;;;;;;;19.00;60.06;102156.16;5019240;28;20045;-73
2021/08/28 06:30:21;;;;;;;4.95;2.85;;;;;;;18.26;69.19;102154.78;5019358;28;20037;-73
2021/08/28 06:32:47;;;;;;;5.07;2.03;;;;;;;19.11;59.92;102156.41;5023197;28;20041;-73
2021/08/28 06:35:12;;;;;;;6.35;2.40;;;;;;;18.96;65.66;102165.25;5039463;28;20479;-73
2021/08/28 06:37:38;;;;;;;6.57;2.47;;;;;;;18.84;62.45;102158.81;5042197;28;20082;-74
2021/08/28 06:40:04;;;;;;;3.30;1.75;;;;;;;18.99;63.61;102163.28;5050141;28;20241;-74
2021/08/28 06:42:29;;;;;;;7.85;3.20;;;;;;;18.99;66.21;102160.63;5040410;28;20041;-74
2021/08/28 06:44:54;;;;;;;7.13;2.63;;;;;;;19.75;59.32;102156.38;5049875;28;20033;-74
2021/08/28 06:47:20;;;;;;;7.78;3.15;;;;;;;19.48;63.94;102158.78;5051116;28;20051;-74
2021/08/28 06:49:45;;;;;;;4.57;2.35;;;;;;;20.04;57.79;102148.47;5038071;28;20336;-74
2021/08/28 06:52:11;;;;;;;2.72;1.48;;;;;;;19.91;62.23;102164.31;5039281;28;20044;-74
2021/08/28 06:54:36;;;;;;;13.50;3.70;;;;;;;19.50;64.33;102159.56;5038894;28;20394;-74
2021/08/28 06:57:01;;;;;;;12.20;3.47;;;;;;;19.93;60.91;102157.94;5040769;28;20037;-74
2021/08/28 06:59:27;;;;;;;7.78;3.60;;;;;;;19.89;64.32;102156.41;5050277;28;20049;-74
2021/08/28 07:01:52;;;;;;;2.25;1.98;;;;;;;19.98;58.49;102147.03;5052808;28;20096;-74
2021/08/28 07:04:18;;;;;;;9.25;3.13;;;;;;;19.88;59.02;102145.88;5038591;28;20029;-74
2021/08/28 07:06:43;;;;;;;3.67;2.17;;;;;;;19.58;59.61;102154.66;5035625;28;20237;-74
2021/08/28 07:09:08;;;;;;;8.32;2.95;;;;;;;19.57;59.76;102158.25;5036964;28;20038;-74
2021/08/28 07:11:34;;;;;;;1.90;1.67;;;;;;;19.62;61.71;102163.31;5054249;28;20043;-74
2021/08/28 07:13:59;;;;;;;5.13;1.98;;;;;;;19.01;65.48;102164.97;5059226;28;20043;-74
2021/08/28 07:16:25;;;;;;;6.82;2.88;;;;;;;18.66;67.73;102154.47;5059475;28;20028;-74
2021/08/28 07:18:51;;;;;;;5.03;2.00;;;;;;;19.56;59.87;102157.41;5039593;28;20033;-74
2021/08/28 07:21:17;;;;;;;11.20;2.90;;;;;;;18.79;65.48;102159.03;5039211;28;20033;-74
2021/08/28 07:23:43;;;;;;;4.75;1.95;;;;;;;19.02;64.05;102156.09;5040716;28;20036;-74
2021/08/28 07:26:09;;;;;;;7.57;2.72;;;;;;;19.03;66.17;102168.41;5039479;28;20037;-74
2021/08/28 07:28:34;;;;;;;6.28;2.35;;;;;;;19.25;64.15;102165.44;5040056;28;20036;-74
2021/08/28 07:31:02;;;;;;;6.00;2.38;;;;;;;19.47;62.40;102165.06;5039512;28;20263;-74
2021/08/28 07:33:27;;;;;;;4.57;2.47;;;;;;;19.77;59.49;102162.44;5039042;28;20067;-74
2021/08/28 07:35:52;;;;;;;3.00;1.92;;;;;;;19.66;61.01;102167.50;5040548;28;20053;-74
2021/08/28 07:38:18;;;;;;;6.97;2.40;;;;;;;19.53;60.51;102159.38;5038692;28;20045;-74
2021/08/28 07:40:43;;;;;;;12.32;3.60;;;;;;;19.20;66.88;102162.19;5040381;28;20029;-74
2021/08/28 07:43:09;;;;;;;8.13;3.10;;;;;;;18.85;67.49;102163.19;5040299;28;20276;-74
2021/08/28 07:45:34;;;;;;;7.57;2.63;;;;;;;19.06;64.26;102165.59;5039735;28;20042;-74
2021/08/28 07:48:00;;;;;;;6.35;2.80;;;;;;;18.85;67.50;102165.00;5039230;28;20043;-74
2021/08/28 07:50:25;;;;;;;5.25;2.50;;;;;;;19.02;66.05;102172.03;5039875;28;20037;-74
2021/08/28 07:52:50;;;;;;;9.63;3.22;;;;;;;18.98;64.46;102166.88;5040464;28;20317;-74
2021/08/28 07:55:16;;;;;;;6.82;2.40;;;;;;;19.20;64.09;102164.84;5019108;28;20044;-74
2021/08/28 07:57:41;;;;;;;6.57;2.50;;;;;;;19.43;61.49;102160.84;5035944;28;20033;-74
2021/08/28 08:00:08;;;;;;;2.50;1.48;;;;;;;19.79;59.63;102167.69;5039183;28;20046;-74
2021/08/28 08:02:33;;;;;;;8.00;3.78;;;;;;;19.78;60.34;102168.63;5020806;28;20053;-74
2021/08/28 08:04:59;;;;;;;3.55;1.95;;;;;;;19.87;59.21;102166.28;5040110;28;20079;-74
2021/08/28 08:07:24;;;;;;;12.98;3.47;;;;;;;19.63;60.66;102167.69;5033437;28;20044;-74
2021/08/28 08:09:50;;;;;;;5.65;2.05;;;;;;;20.08;59.59;102168.59;5032126;28;20044;-74
2021/08/28 08:12:15;;;;;;;8.23;3.55;;;;;;;18.92;65.33;102180.50;5019774;28;20033;-74
2021/08/28 08:14:40;;;;;;;9.40;3.97;;;;;;;18.94;65.38;102177.75;5036779;28;20029;-74
2021/08/28 08:17:06;;;;;;;6.25;3.10;;;;;;;18.97;63.71;102174.91;5033495;28;20041;-74
2021/08/28 08:19:31;;;;;;;7.40;3.50;;;;;;;18.36;66.70;102187.00;5037518;28;20099;-74
2021/08/28 08:21:57;;;;;;;9.57;3.90;;;;;;;18.50;66.17;102183.59;5039603;28;20049;-74
2021/08/28 08:24:22;;;;;;;10.93;4.20;;;;;;;18.66;66.97;102181.00;5059204;28;20033;-74
2021/08/28 08:26:47;;;;;;;8.68;3.63;;;;;;;19.35;64.29;102188.69;5044631;28;20068;-74
2021/08/28 08:29:13;;;;;;;10.40;3.60;;;;;;;19.48;64.45;102190.69;5038397;28;20033;-74
2021/08/28 08:31:38;;;;;;;6.63;2.90;;;;;;;19.77;62.70;102188.19;5039961;28;20037;-74
2021/08/28 08:34:03;;;;;;;8.75;3.55;;;;;;;18.99;63.81;102195.16;5039778;28;20072;-74
2021/08/28 08:36:29;;;;;;;7.80;3.45;;;;;;;19.32;63.51;102188.06;5039385;28;20381;-74
2021/08/28 08:38:54;;;;;;;10.55;3.65;;;;;;;19.06;64.10;102184.19;5039973;28;20091;-74
2021/08/28 08:41:20;;;;;;;4.93;2.88;;;;;;;19.70;61.11;102188.50;5039229;28;20041;-74
2021/08/28 08:43:46;;;;;;;6.38;3.40;;;;;;;19.59;62.40;102185.59;5039832;28;20379;-74
2021/08/28 08:46:11;;;;;;;8.73;4.03;;;;;;;19.47;62.52;102197.78;5038056;28;20059;-74
2021/08/28 08:48:37;;;;;;;4.78;2.53;;;;;;;20.07;59.49;102188.19;5039559;28;20033;-74
2021/08/28 08:51:02;;;;;;;5.43;2.42;;;;;;;20.00;60.00;102200.97;5038624;28;20072;-75
2021/08/28 08:53:29;;;;;;;6.65;3.03;;;;;;;19.27;62.46;102200.72;5039367;28;20077;-75
2021/08/28 08:55:55;;;;;;;9.75;3.53;;;;;;;19.14;63.91;102192.59;5043118;28;20202;-74
2021/08/28 08:58:20;;;;;;;11.10;3.75;;;;;;;18.81;64.79;102193.50;5041560;28;20021;-75
2021/08/28 09:00:46;;;;;;;7.70;3.78;;;;;;;19.01;64.59;102203.03;5042326;28;20033;-75
2021/08/28 09:03:11;;;;;;;6.15;3.22;;;;;;;19.27;62.11;102208.69;5037908;28;20041;-75
2021/08/28 09:05:37;;;;;;;5.20;2.92;;;;;;;19.25;62.60;102207.94;5041033;28;20045;-75
2021/08/28 09:08:02;;;;;;;8.70;3.42;;;;;;;19.10;63.34;102204.28;5041957;28;20048;-75
2021/08/28 09:10:28;;;;;;;6.88;3.40;;;;;;;19.73;61.00;102198.13;5042549;28;20105;-75
2021/08/28 09:12:53;;;;;;;8.90;3.78;;;;;;;19.69;61.37;102201.88;5041695;28;20331;-75
2021/08/28 09:15:19;;;;;;;6.47;3.28;;;;;;;19.47;62.61;102200.44;5042539;28;20316;-75
2021/08/28 09:17:45;;;;;;;8.07;3.22;;;;;;;19.69;62.11;102199.22;5041578;28;20033;-75
2021/08/28 09:20:37;;;;;;;11.68;3.70;;;;;;;19.70;61.38;102206.25;5041693;28;20104;-75
2021/08/28 09:23:10;;;;;;;3.35;2.70;;;;;;;19.78;61.54;102209.34;5039984;28;20037;-75
2021/08/28 09:25:41;;;;;;;7.65;2.75;;;;;;;19.67;61.91;102203.78;5041133;28;20045;-75
2021/08/28 09:28:07;;;;;;;7.70;3.88;;;;;;;19.21;63.19;102201.94;5042839;28;20216;-75
2021/08/28 09:30:40;;;;;;;8.43;2.67;;;;;;;19.60;62.15;102205.91;5040725;28;20059;-75
2021/08/28 09:33:10;;;;;;;8.25;3.85;;;;;;;19.99;59.71;102206.38;5036245;28;20311;-75
2021/08/28 09:35:38;;;;;;;9.63;3.67;;;;;;;19.44;62.06;102211.25;5037382;28;20229;-75
2021/08/28 09:38:05;;;;;;;4.50;2.97;;;;;;;19.88;61.13;102210.53;5043501;28;20028;-75
2021/08/28 09:40:32;;;;;;;5.18;3.03;;;;;;;19.14;62.93;102206.72;5038571;28;20040;-75
2021/08/28 09:43:00;;;;;;;8.38;3.85;;;;;;;19.12;63.42;102213.06;5040511;28;20060;-75
2021/08/28 09:45:25;;;;;;;6.82;4.05;;;;;;;20.18;59.94;102222.13;5038093;28;20045;-74
2021/08/28 09:47:52;;;;;;;6.75;3.42;;;;;;;19.59;61.27;102219.28;5038997;28;20337;-74
2021/08/28 09:50:32;;;;;;;8.38;4.00;;;;;;;19.04;62.85;102218.78;5050217;28;20079;-74
2021/08/28 09:53:02;;;;;;;8.63;4.15;;;;;;;18.68;66.46;102217.16;5060844;28;20025;-74
2021/08/28 09:55:32;;;;;;;4.13;3.08;;;;;;;19.10;63.21;102212.25;5060439;28;20021;-75
2021/08/28 09:57:57;;;;;;;5.65;3.47;;;;;;;19.28;63.00;102211.28;5060787;28;20047;-75
2021/08/28 10:00:22;;;;;;;8.25;4.45;;;;;;;18.56;64.34;102221.28;5061253;28;20036;-74
2021/08/28 10:02:59;;;;;;;8.00;3.58;;;;;;;20.85;57.70;102218.03;5055271;28;20270;-74
2021/08/28 10:05:25;;;;;;;10.93;3.53;;;;;;;22.79;51.96;102215.88;5031433;28;20048;-74
2021/08/28 10:07:51;;;;;;;11.18;3.65;;;;;;;22.06;53.29;102208.44;5040999;28;20028;-74
2021/08/28 10:10:16;;;;;;;8.30;4.40;;;;;;;21.11;56.42;102212.88;5020202;28;20029;-75
2021/08/28 10:12:42;;;;;;;6.10;3.00;;;;;;;20.18;59.40;102216.81;5020883;28;20040;-75
2021/08/28 10:15:08;;;;;;;7.28;3.67;;;;;;;19.99;60.59;102217.88;5032009;28;20087;-75
2021/08/28 10:17:34;;;;;;;7.70;3.42;;;;;;;20.14;59.85;102216.97;5040212;28;20036;-75
2021/08/28 10:20:01;;;;;;;6.20;2.33;;;;;;;19.77;60.78;102214.75;5040912;28;20036;-75
2021/08/28 10:22:29;;;;;;;9.30;4.07;;;;;;;20.02;61.84;102217.69;5020130;28;20033;-75
2021/08/28 10:24:57;;;;;;;5.57;3.88;;;;;;;19.83;62.10;102217.94;5033423;28;20313;-75
2021/08/28 10:27:25;;;;;;;5.30;3.28;;;;;;;19.79;61.48;102210.19;5041161;28;20032;-75
2021/08/28 10:29:51;;;;;;;7.22;3.13;;;;;;;22.53;54.13;102209.69;5041487;28;20228;-75
2021/08/28 10:32:17;;;;;;;4.60;3.22;;;;;;;23.49;50.53;102206.41;5039515;28;20045;-75
2021/08/28 10:34:42;;;;;;;8.07;4.18;;;;;;;21.82;53.50;102211.81;5020519;28;20034;-74
2021/08/28 10:37:08;;;;;;;9.88;3.97;;;;;;;21.26;55.37;102209.22;5040232;28;20025;-75
2021/08/28 10:39:34;;;;;;;8.40;4.18;;;;;;;20.56;57.68;102217.16;5003624;28;20358;-75
2021/08/28 10:41:59;;;;;;;5.35;3.85;;;;;;;22.15;53.85;102213.16;5022299;28;20056;-75
2021/08/28 10:44:25;;;;;;;7.55;3.80;;;;;;;23.04;51.80;102200.78;5040748;28;20037;-75
2021/08/28 10:46:50;;;;;;;2.60;2.33;;;;;;;22.81;51.24;102213.97;5040944;28;20060;-75
2021/08/28 10:49:16;;;;;;;11.50;4.50;;;;;;;22.28;52.42;102215.88;5040619;28;20037;-75
2021/08/28 10:51:42;;;;;;;10.43;3.53;;;;;;;22.58;51.79;102199.56;5041044;28;20248;-75
2021/08/28 10:54:09;;;;;;;9.38;4.15;;;;;;;21.52;54.28;102208.50;5020006;28;20038;-75
2021/08/28 10:56:41;;;;;;;11.13;3.58;;;;;;;21.22;56.03;102201.53;5039239;28;20040;-75
2021/08/28 10:59:36;;;;;;;5.45;2.45;;;;;;;20.83;56.44;102219.06;5041051;28;20060;-75
2021/08/28 11:02:14;;;;;;;4.20;2.53;;;;;;;20.97;55.48;102203.06;5031047;28;20095;-75
2021/08/28 11:04:41;;;;;;;5.32;3.70;;;;;;;22.26;51.97;102208.91;5040771;28;20045;-75
2021/08/28 11:07:24;;;;;;;4.47;2.78;;;;;;;21.75;50.48;102217.66;5039510;28;20084;-75
2021/08/28 11:10:12;;;;;;;8.63;3.42;;;;;;;21.67;52.53;102211.03;5019938;28;20041;-75
2021/08/28 11:12:50;;;;;;;3.72;2.30;;;;;;;20.58;54.90;102214.41;5037985;28;20040;-75
2021/08/28 11:15:24;;;;;;;7.53;3.25;;;;;;;20.30;56.27;102227.56;5039984;28;20318;-75
2021/08/28 11:18:11;;;;;;;4.85;3.10;;;;;;;19.95;55.50;102216.34;5041037;28;20029;-75
2021/08/28 11:20:43;;;;;;;8.80;3.42;;;;;;;20.11;56.57;102218.97;5039501;28;20216;-75